Dry Fork, Virginia
Current Conditions -  °F | °C
As of 2:53 PM on Friday 24 Oct 2014 (Local Time) from KDAN Reporting Station
Haze Haze  
Wind Chill: 69°   Ceiling: Unl
Heat Index: 69°   Visibility: 3mi
Dew Point: 43°   Wind: 3mph
Humidity: 39%   Direction: 280°W
Pressure: 29.97"   Gusts: NA
Location:  36.75°N, 79.4°W
Report Text: KDAN 241853Z AUTO 28003KT 3SM HZ CLR 21/06 A2997 RMK AO2 SLP142 T02060061
Loading
Personal Weather Stations






























Interactive Weather Map
Tropical Storm Tracking
New forecast layout! Learn more

10-Day Weather Forecast

Advertisements
Track Severe Weather on mobile